sensor_id;sensor_type;location;lat;lon;timestamp;pressure;altitude;pressure_sealevel;temperature;humidity
61908;BME280;47864;52.526;19.672;2024-01-11T00:00:48;147728.56;;;-5.25;100.00
61908;BME280;47864;52.526;19.672;2024-01-11T00:02:50;147808.41;;;-4.92;100.00
61908;BME280;47864;52.526;19.672;2024-01-11T00:04:52;147711.09;;;-5.32;100.00
61908;BME280;47864;52.526;19.672;2024-01-11T00:06:53;147810.91;;;-4.91;100.00
61908;BME280;47864;52.526;19.672;2024-01-11T00:08:55;147854.59;;;-4.74;100.00
61908;BME280;47864;52.526;19.672;2024-01-11T00:10:57;147875.81;;;-4.65;100.00
61908;BME280;47864;52.526;19.672;2024-01-11T00:12:58;147677.44;;;-5.46;100.00
61908;BME280;47864;52.526;19.672;2024-01-11T00:15:00;147803.44;;;-4.94;100.00
61908;BME280;47864;52.526;19.672;2024-01-11T00:17:02;147854.59;;;-4.74;100.00
61908;BME280;47864;52.526;19.672;2024-01-11T00:19:04;147904.56;;;-4.53;100.00
61908;BME280;47864;52.526;19.672;2024-01-11T00:21:06;147849.59;;;-4.76;100.00
61908;BME280;47864;52.526;19.672;2024-01-11T00:23:07;147859.59;;;-4.72;100.00
61908;BME280;47864;52.526;19.672;2024-01-11T00:25:09;147829.63;;;-4.84;100.00
61908;BME280;47864;52.526;19.672;2024-01-11T00:27:11;147778.47;;;-5.05;100.00
61908;BME280;47864;52.526;19.672;2024-01-11T00:29:12;147820.91;;;-4.87;100.00
61908;BME280;47864;52.526;19.672;2024-01-11T00:31:14;147905.81;;;-4.53;100.00
61908;BME280;47864;52.526;19.672;2024-01-11T00:33:16;147823.41;;;-4.86;100.00
61908;BME280;47864;52.526;19.672;2024-01-11T00:35:17;147613.81;;;-5.71;100.00
61908;BME280;47864;52.526;19.672;2024-01-11T00:37:19;147795.94;;;-4.97;100.00
61908;BME280;47864;52.526;19.672;2024-01-11T00:39:21;147778.47;;;-5.05;100.00
61908;BME280;47864;52.526;19.672;2024-01-11T00:41:22;147918.28;;;-4.48;100.00
61908;BME280;47864;52.526;19.672;2024-01-11T00:43:24;147835.88;;;-4.81;100.00
61908;BME280;47864;52.526;19.672;2024-01-11T00:45:25;147878.31;;;-4.64;100.00
61908;BME280;47864;52.526;19.672;2024-01-11T00:47:27;147852.09;;;-4.75;100.00
61908;BME280;47864;52.526;19.672;2024-01-11T00:49:29;147853.34;;;-4.74;100.00
61908;BME280;47864;52.526;19.672;2024-01-11T00:51:31;147899.56;;;-4.55;100.00
61908;BME280;47864;52.526;19.672;2024-01-11T00:53:32;147842.13;;;-4.79;100.00
61908;BME280;47864;52.526;19.672;2024-01-11T00:55:34;147915.78;;;-4.49;100.00
61908;BME280;47864;52.526;19.672;2024-01-11T00:57:36;147870.81;;;-4.67;100.00
61908;BME280;47864;52.526;19.672;2024-01-11T00:59:39;147995.69;;;-4.16;100.00
61908;BME280;47864;52.526;19.672;2024-01-11T01:01:47;147870.81;;;-4.67;100.00
61908;BME280;47864;52.526;19.672;2024-01-11T01:03:49;147790.94;;;-5.00;100.00
61908;BME280;47864;52.526;19.672;2024-01-11T01:05:50;147894.53;;;-4.57;100.00
61908;BME280;47864;52.526;19.672;2024-01-11T01:07:52;147853.34;;;-4.74;100.00
61908;BME280;47864;52.526;19.672;2024-01-11T01:09:54;147758.53;;;-5.13;100.00
61908;BME280;47864;52.526;19.672;2024-01-11T01:11:56;147819.66;;;-4.88;100.00
61908;BME280;47864;52.526;19.672;2024-01-11T01:13:58;147888.28;;;-4.60;100.00
61908;BME280;47864;52.526;19.672;2024-01-11T01:15:59;147897.03;;;-4.56;100.00
61908;BME280;47864;52.526;19.672;2024-01-11T01:18:01;147752.25;;;-5.15;100.00
61908;BME280;47864;52.526;19.672;2024-01-11T01:20:03;147787.19;;;-5.01;100.00
61908;BME280;47864;52.526;19.672;2024-01-11T01:22:05;147838.38;;;-4.80;100.00
61908;BME280;47864;52.526;19.672;2024-01-11T01:24:07;147803.44;;;-4.94;100.00
61908;BME280;47864;52.526;19.672;2024-01-11T01:26:09;147890.78;;;-4.59;100.00
61908;BME280;47864;52.526;19.672;2024-01-11T01:28:11;147815.91;;;-4.89;100.00
61908;BME280;47864;52.526;19.672;2024-01-11T01:30:12;147835.88;;;-4.81;100.00
61908;BME280;47864;52.526;19.672;2024-01-11T01:32:14;147788.44;;;-5.01;100.00
61908;BME280;47864;52.526;19.672;2024-01-11T01:34:16;147804.66;;;-4.94;100.00
61908;BME280;47864;52.526;19.672;2024-01-11T01:36:17;147819.66;;;-4.88;100.00
61908;BME280;47864;52.526;19.672;2024-01-11T01:38:19;147922.03;;;-4.46;100.00
61908;BME280;47864;52.526;19.672;2024-01-11T01:40:21;147850.84;;;-4.75;100.00
61908;BME280;47864;52.526;19.672;2024-01-11T01:42:23;147927.00;;;-4.44;100.00
61908;BME280;47864;52.526;19.672;2024-01-11T01:44:24;147832.13;;;-4.83;100.00
61908;BME280;47864;52.526;19.672;2024-01-11T01:46:27;147929.50;;;-4.43;100.00
61908;BME280;47864;52.526;19.672;2024-01-11T01:48:29;147879.56;;;-4.64;100.00
61908;BME280;47864;52.526;19.672;2024-01-11T01:50:31;147918.28;;;-4.48;100.00
61908;BME280;47864;52.526;19.672;2024-01-11T01:52:34;147918.28;;;-4.48;100.00
61908;BME280;47864;52.526;19.672;2024-01-11T01:54:36;147838.38;;;-4.80;100.00
61908;BME280;47864;52.526;19.672;2024-01-11T01:56:38;147879.56;;;-4.64;100.00
61908;BME280;47864;52.526;19.672;2024-01-11T01:58:40;147828.38;;;-4.84;100.00
61908;BME280;47864;52.526;19.672;2024-01-11T02:00:44;147770.97;;;-5.08;100.00
61908;BME280;47864;52.526;19.672;2024-01-11T02:02:50;147888.28;;;-4.60;100.00
61908;BME280;47864;52.526;19.672;2024-01-11T02:04:52;147852.09;;;-4.75;100.00
61908;BME280;47864;52.526;19.672;2024-01-11T02:06:54;147857.09;;;-4.73;100.00
61908;BME280;47864;52.526;19.672;2024-01-11T02:08:56;147842.13;;;-4.79;100.00
61908;BME280;47864;52.526;19.672;2024-01-11T02:10:59;147854.59;;;-4.74;100.00
61908;BME280;47864;52.526;19.672;2024-01-11T02:13:01;147855.84;;;-4.73;100.00
61908;BME280;47864;52.526;19.672;2024-01-11T02:15:03;147973.19;;;-4.26;100.00
61908;BME280;47864;52.526;19.672;2024-01-11T02:17:05;147950.72;;;-4.35;100.00
61908;BME280;47864;52.526;19.672;2024-01-11T02:19:12;147928.25;;;-4.44;100.00
61908;BME280;47864;52.526;19.672;2024-01-11T02:21:15;147964.50;;;-4.29;100.00
61908;BME280;47864;52.526;19.672;2024-01-11T02:23:19;147935.75;;;-4.41;100.00
61908;BME280;47864;52.526;19.672;2024-01-11T02:25:22;147819.66;;;-4.88;100.00
61908;BME280;47864;52.526;19.672;2024-01-11T02:27:24;147867.06;;;-4.69;100.00
61908;BME280;47864;52.526;19.672;2024-01-11T02:29:26;147787.19;;;-5.01;100.00
61908;BME280;47864;52.526;19.672;2024-01-11T02:31:28;147736.06;;;-5.22;100.00
61908;BME280;47864;52.526;19.672;2024-01-11T02:33:30;147863.34;;;-4.70;100.00
61908;BME280;47864;52.526;19.672;2024-01-11T02:35:33;147885.78;;;-4.61;100.00
61908;BME280;47864;52.526;19.672;2024-01-11T02:37:37;147910.75;;;-4.51;100.00
61908;BME280;47864;52.526;19.672;2024-01-11T02:39:39;147909.50;;;-4.51;100.00
61908;BME280;47864;52.526;19.672;2024-01-11T02:41:41;147738.56;;;-5.21;100.00
61908;BME280;47864;52.526;19.672;2024-01-11T02:43:49;147879.56;;;-4.64;100.00
61908;BME280;47864;52.526;19.672;2024-01-11T02:45:54;147877.06;;;-4.65;100.00
61908;BME280;47864;52.526;19.672;2024-01-11T02:47:56;147878.31;;;-4.64;100.00
61908;BME280;47864;52.526;19.672;2024-01-11T02:49:58;147897.03;;;-4.56;100.00
61908;BME280;47864;52.526;19.672;2024-01-11T02:52:00;147905.81;;;-4.53;100.00
61908;BME280;47864;52.526;19.672;2024-01-11T02:54:02;147870.81;;;-4.67;100.00
61908;BME280;47864;52.526;19.672;2024-01-11T02:56:03;147863.34;;;-4.70;100.00
61908;BME280;47864;52.526;19.672;2024-01-11T02:58:05;147900.81;;;-4.55;100.00
61908;BME280;47864;52.526;19.672;2024-01-11T03:00:07;147965.75;;;-4.29;100.00
61908;BME280;47864;52.526;19.672;2024-01-11T03:02:09;147983.22;;;-4.22;100.00
61908;BME280;47864;52.526;19.672;2024-01-11T03:04:11;147905.81;;;-4.53;100.00
61908;BME280;47864;52.526;19.672;2024-01-11T03:06:12;147883.31;;;-4.62;100.00
61908;BME280;47864;52.526;19.672;2024-01-11T03:08:14;147925.78;;;-4.45;100.00
61908;BME280;47864;52.526;19.672;2024-01-11T03:10:16;148028.13;;;-4.03;100.00
61908;BME280;47864;52.526;19.672;2024-01-11T03:12:18;147985.72;;;-4.20;100.00
61908;BME280;47864;52.526;19.672;2024-01-11T03:14:19;147963.22;;;-4.30;100.00
61908;BME280;47864;52.526;19.672;2024-01-11T03:16:21;147907.00;;;-4.52;100.00
61908;BME280;47864;52.526;19.672;2024-01-11T03:18:23;147969.44;;;-4.27;100.00
61908;BME280;47864;52.526;19.672;2024-01-11T03:20:25;147989.44;;;-4.19;100.00
61908;BME280;47864;52.526;19.672;2024-01-11T03:22:26;147937.00;;;-4.40;100.00
61908;BME280;47864;52.526;19.672;2024-01-11T03:24:28;147970.69;;;-4.27;100.00
61908;BME280;47864;52.526;19.672;2024-01-11T03:26:30;147925.78;;;-4.45;100.00
61908;BME280;47864;52.526;19.672;2024-01-11T03:28:31;148026.94;;;-4.04;100.00
61908;BME280;47864;52.526;19.672;2024-01-11T03:30:33;148024.44;;;-4.05;100.00
61908;BME280;47864;52.526;19.672;2024-01-11T03:32:35;148018.16;;;-4.07;100.00
61908;BME280;47864;52.526;19.672;2024-01-11T03:34:36;147939.50;;;-4.39;100.00
61908;BME280;47864;52.526;19.672;2024-01-11T03:36:38;147970.69;;;-4.27;100.00
61908;BME280;47864;52.526;19.672;2024-01-11T03:38:40;147999.44;;;-4.15;100.00
61908;BME280;47864;52.526;19.672;2024-01-11T03:40:41;147978.22;;;-4.24;100.00
61908;BME280;47864;52.526;19.672;2024-01-11T03:42:43;147870.81;;;-4.67;100.00
61908;BME280;47864;52.526;19.672;2024-01-11T03:44:45;147943.25;;;-4.38;100.00
61908;BME280;47864;52.526;19.672;2024-01-11T03:46:46;147923.28;;;-4.46;100.00
61908;BME280;47864;52.526;19.672;2024-01-11T03:48:48;147969.44;;;-4.27;100.00
61908;BME280;47864;52.526;19.672;2024-01-11T03:50:50;147939.50;;;-4.39;100.00
61908;BME280;47864;52.526;19.672;2024-01-11T03:52:51;147918.28;;;-4.48;100.00
61908;BME280;47864;52.526;19.672;2024-01-11T03:54:53;147899.56;;;-4.55;100.00
61908;BME280;47864;52.526;19.672;2024-01-11T03:56:55;148018.16;;;-4.07;100.00
61908;BME280;47864;52.526;19.672;2024-01-11T03:58:56;147995.69;;;-4.16;100.00
61908;BME280;47864;52.526;19.672;2024-01-11T04:00:59;147943.25;;;-4.38;100.00
61908;BME280;47864;52.526;19.672;2024-01-11T04:03:01;147994.44;;;-4.17;100.00
61908;BME280;47864;52.526;19.672;2024-01-11T04:05:03;147963.22;;;-4.30;100.00
61908;BME280;47864;52.526;19.672;2024-01-11T04:07:05;148043.16;;;-3.97;100.00
61908;BME280;47864;52.526;19.672;2024-01-11T04:09:07;147933.25;;;-4.42;100.00
61908;BME280;47864;52.526;19.672;2024-01-11T04:11:09;147938.25;;;-4.40;100.00
61908;BME280;47864;52.526;19.672;2024-01-11T04:13:10;147825.88;;;-4.85;100.00
61908;BME280;47864;52.526;19.672;2024-01-11T04:15:12;147975.69;;;-4.25;100.00
61908;BME280;47864;52.526;19.672;2024-01-11T04:17:14;147986.97;;;-4.20;100.00
61908;BME280;47864;52.526;19.672;2024-01-11T04:19:16;148031.88;;;-4.02;100.00
61908;BME280;47864;52.526;19.672;2024-01-11T04:21:23;147964.50;;;-4.29;100.00
61908;BME280;47864;52.526;19.672;2024-01-11T04:23:25;148010.66;;;-4.10;100.00
61908;BME280;47864;52.526;19.672;2024-01-11T04:25:27;147942.00;;;-4.38;100.00
61908;BME280;47864;52.526;19.672;2024-01-11T04:27:28;148048.13;;;-3.95;100.00
61908;BME280;47864;52.526;19.672;2024-01-11T04:29:30;147971.94;;;-4.26;100.00
61908;BME280;47864;52.526;19.672;2024-01-11T04:31:32;147975.69;;;-4.25;100.00
61908;BME280;47864;52.526;19.672;2024-01-11T04:33:34;147954.47;;;-4.33;100.00
61908;BME280;47864;52.526;19.672;2024-01-11T04:35:38;147904.56;;;-4.53;100.00
61908;BME280;47864;52.526;19.672;2024-01-11T04:37:40;147984.47;;;-4.21;100.00
61908;BME280;47864;52.526;19.672;2024-01-11T04:39:42;147948.22;;;-4.36;100.00
61908;BME280;47864;52.526;19.672;2024-01-11T04:41:43;147888.28;;;-4.60;100.00
61908;BME280;47864;52.526;19.672;2024-01-11T04:43:45;147904.56;;;-4.53;100.00
61908;BME280;47864;52.526;19.672;2024-01-11T04:45:47;148005.69;;;-4.12;100.00
61908;BME280;47864;52.526;19.672;2024-01-11T04:47:50;148069.34;;;-3.87;100.00
61908;BME280;47864;52.526;19.672;2024-01-11T04:49:52;148059.38;;;-3.91;100.00
61908;BME280;47864;52.526;19.672;2024-01-11T04:51:54;148069.34;;;-3.87;100.00
61908;BME280;47864;52.526;19.672;2024-01-11T04:53:55;148063.16;;;-3.89;100.00
61908;BME280;47864;52.526;19.672;2024-01-11T04:55:57;148071.84;;;-3.86;100.00
61908;BME280;47864;52.526;19.672;2024-01-11T04:57:59;148105.63;;;-3.72;100.00
61908;BME280;47864;52.526;19.672;2024-01-11T05:00:01;148085.63;;;-3.80;100.00
61908;BME280;47864;52.526;19.672;2024-01-11T05:02:04;148101.88;;;-3.73;100.00
61908;BME280;47864;52.526;19.672;2024-01-11T05:04:06;148171.81;;;-3.45;100.00
61908;BME280;47864;52.526;19.672;2024-01-11T05:06:08;148118.09;;;-3.67;100.00
61908;BME280;47864;52.526;19.672;2024-01-11T05:08:10;147983.22;;;-4.22;100.00
61908;BME280;47864;52.526;19.672;2024-01-11T05:10:12;148096.84;;;-3.75;100.00
61908;BME280;47864;52.526;19.672;2024-01-11T05:12:13;148065.66;;;-3.88;100.00
61908;BME280;47864;52.526;19.672;2024-01-11T05:14:15;148103.13;;;-3.73;100.00
61908;BME280;47864;52.526;19.672;2024-01-11T05:16:24;148193.06;;;-3.36;100.00
61908;BME280;47864;52.526;19.672;2024-01-11T05:18:26;148133.06;;;-3.61;100.00
61908;BME280;47864;52.526;19.672;2024-01-11T05:20:30;148158.06;;;-3.51;100.00
61908;BME280;47864;52.526;19.672;2024-01-11T05:22:32;148105.63;;;-3.72;100.00
61908;BME280;47864;52.526;19.672;2024-01-11T05:24:34;148181.84;;;-3.41;100.00
61908;BME280;47864;52.526;19.672;2024-01-11T05:26:35;148163.09;;;-3.49;100.00
61908;BME280;47864;52.526;19.672;2024-01-11T05:28:37;148188.09;;;-3.38;100.00
61908;BME280;47864;52.526;19.672;2024-01-11T05:30:39;148208.09;;;-3.30;100.00
61908;BME280;47864;52.526;19.672;2024-01-11T05:32:40;148156.81;;;-3.51;100.00
61908;BME280;47864;52.526;19.672;2024-01-11T05:34:42;148185.59;;;-3.39;100.00
61908;BME280;47864;52.526;19.672;2024-01-11T05:36:44;148064.41;;;-3.89;100.00
61908;BME280;47864;52.526;19.672;2024-01-11T05:38:46;147993.19;;;-4.17;100.00
61908;BME280;47864;52.526;19.672;2024-01-11T05:40:47;148156.81;;;-3.51;100.00
61908;BME280;47864;52.526;19.672;2024-01-11T05:42:49;148194.31;;;-3.36;100.00
61908;BME280;47864;52.526;19.672;2024-01-11T05:44:51;148176.81;;;-3.43;100.00
61908;BME280;47864;52.526;19.672;2024-01-11T05:46:53;148186.84;;;-3.39;100.00
61908;BME280;47864;52.526;19.672;2024-01-11T05:48:54;148165.59;;;-3.48;100.00
61908;BME280;47864;52.526;19.672;2024-01-11T05:50:56;148164.34;;;-3.48;100.00
61908;BME280;47864;52.526;19.672;2024-01-11T05:52:58;148115.59;;;-3.68;100.00
61908;BME280;47864;52.526;19.672;2024-01-11T05:54:59;148133.06;;;-3.61;100.00
61908;BME280;47864;52.526;19.672;2024-01-11T05:57:02;148193.06;;;-3.36;100.00
61908;BME280;47864;52.526;19.672;2024-01-11T05:59:04;148239.31;;;-3.18;100.00
61908;BME280;47864;52.526;19.672;2024-01-11T06:01:05;148199.31;;;-3.34;100.00
61908;BME280;47864;52.526;19.672;2024-01-11T06:03:07;148160.59;;;-3.50;100.00
61908;BME280;47864;52.526;19.672;2024-01-11T06:05:09;148278.06;;;-3.02;100.00
61908;BME280;47864;52.526;19.672;2024-01-11T06:07:11;148215.56;;;-3.27;100.00
61908;BME280;47864;52.526;19.672;2024-01-11T06:09:13;148211.81;;;-3.29;100.00
61908;BME280;47864;52.526;19.672;2024-01-11T06:11:14;148253.03;;;-3.12;100.00
61908;BME280;47864;52.526;19.672;2024-01-11T06:13:16;148308.09;;;-2.90;100.00
61908;BME280;47864;52.526;19.672;2024-01-11T06:15:18;148276.81;;;-3.02;100.00
61908;BME280;47864;52.526;19.672;2024-01-11T06:17:19;148236.81;;;-3.19;100.00
61908;BME280;47864;52.526;19.672;2024-01-11T06:19:22;148226.84;;;-3.23;100.00
61908;BME280;47864;52.526;19.672;2024-01-11T06:21:24;148258.06;;;-3.10;100.00
61908;BME280;47864;52.526;19.672;2024-01-11T06:23:26;148220.56;;;-3.25;100.00
61908;BME280;47864;52.526;19.672;2024-01-11T06:25:28;148214.31;;;-3.28;100.00
61908;BME280;47864;52.526;19.672;2024-01-11T06:27:29;148344.34;;;-2.75;100.00
61908;BME280;47864;52.526;19.672;2024-01-11T06:29:31;148294.31;;;-2.95;100.00
61908;BME280;47864;52.526;19.672;2024-01-11T06:31:33;148188.09;;;-3.38;100.00
61908;BME280;47864;52.526;19.672;2024-01-11T06:33:37;148263.06;;;-3.08;100.00
61908;BME280;47864;52.526;19.672;2024-01-11T06:35:39;148330.59;;;-2.81;100.00
61908;BME280;47864;52.526;19.672;2024-01-11T06:37:41;148358.06;;;-2.70;100.00
61908;BME280;47864;52.526;19.672;2024-01-11T06:39:42;148309.34;;;-2.89;100.00
61908;BME280;47864;52.526;19.672;2024-01-11T06:41:44;148323.06;;;-2.84;100.00
61908;BME280;47864;52.526;19.672;2024-01-11T06:43:46;148373.06;;;-2.63;100.00
61908;BME280;47864;52.526;19.672;2024-01-11T06:45:48;148428.13;;;-2.41;100.00
61908;BME280;47864;52.526;19.672;2024-01-11T06:47:49;148299.31;;;-2.93;100.00
61908;BME280;47864;52.526;19.672;2024-01-11T06:49:51;148373.06;;;-2.63;100.00
61908;BME280;47864;52.526;19.672;2024-01-11T06:51:53;148350.59;;;-2.73;100.00
61908;BME280;47864;52.526;19.672;2024-01-11T06:53:55;148339.31;;;-2.77;100.00
61908;BME280;47864;52.526;19.672;2024-01-11T06:55:56;148406.88;;;-2.50;100.00
61908;BME280;47864;52.526;19.672;2024-01-11T06:57:58;148323.06;;;-2.84;100.00
61908;BME280;47864;52.526;19.672;2024-01-11T06:59:59;148413.13;;;-2.47;100.00
61908;BME280;47864;52.526;19.672;2024-01-11T07:02:01;148421.84;;;-2.44;100.00
61908;BME280;47864;52.526;19.672;2024-01-11T07:04:03;148361.84;;;-2.68;100.00
61908;BME280;47864;52.526;19.672;2024-01-11T07:06:05;148415.59;;;-2.46;100.00
61908;BME280;47864;52.526;19.672;2024-01-11T07:08:07;148458.13;;;-2.29;100.00
61908;BME280;47864;52.526;19.672;2024-01-11T07:10:09;148406.88;;;-2.50;100.00
61908;BME280;47864;52.526;19.672;2024-01-11T07:12:11;148395.59;;;-2.54;100.00
61908;BME280;47864;52.526;19.672;2024-01-11T07:14:12;148456.88;;;-2.30;100.00
61908;BME280;47864;52.526;19.672;2024-01-11T07:16:14;148463.13;;;-2.27;100.00
61908;BME280;47864;52.526;19.672;2024-01-11T07:18:17;148175.56;;;-3.43;100.00
61908;BME280;47864;52.526;19.672;2024-01-11T07:20:19;148484.41;;;-2.18;100.00
61908;BME280;47864;52.526;19.672;2024-01-11T07:22:20;148435.59;;;-2.38;100.00
61908;BME280;47864;52.526;19.672;2024-01-11T07:24:22;148470.66;;;-2.24;100.00
61908;BME280;47864;52.526;19.672;2024-01-11T07:26:24;148560.72;;;-1.87;100.00
61908;BME280;47864;52.526;19.672;2024-01-11T07:28:26;148584.50;;;-1.78;100.00
61908;BME280;47864;52.526;19.672;2024-01-11T07:30:27;148531.97;;;-1.99;100.00
61908;BME280;47864;52.526;19.672;2024-01-11T07:32:29;148520.69;;;-2.04;100.00
61908;BME280;47864;52.526;19.672;2024-01-11T07:34:32;148558.22;;;-1.88;100.00
61908;BME280;47864;52.526;19.672;2024-01-11T07:36:33;148570.75;;;-1.83;100.00
61908;BME280;47864;52.526;19.672;2024-01-11T07:38:35;148569.50;;;-1.84;100.00
61908;BME280;47864;52.526;19.672;2024-01-11T07:40:37;148655.88;;;-1.49;100.00
61908;BME280;47864;52.526;19.672;2024-01-11T07:42:42;148629.56;;;-1.60;100.00
61908;BME280;47864;52.526;19.672;2024-01-11T07:44:44;148525.69;;;-2.02;100.00
61908;BME280;47864;52.526;19.672;2024-01-11T07:46:46;148609.53;;;-1.68;100.00
61908;BME280;47864;52.526;19.672;2024-01-11T07:48:55;148658.34;;;-1.48;100.00
61908;BME280;47864;52.526;19.672;2024-01-11T07:50:57;148525.69;;;-2.02;100.00
61908;BME280;47864;52.526;19.672;2024-01-11T07:52:59;148622.03;;;-1.63;100.00
61908;BME280;47864;52.526;19.672;2024-01-11T07:55:01;148690.91;;;-1.35;100.00
61908;BME280;47864;52.526;19.672;2024-01-11T07:57:03;148665.88;;;-1.45;100.00
61908;BME280;47864;52.526;19.672;2024-01-11T07:59:04;148647.09;;;-1.52;100.00
61908;BME280;47864;52.526;19.672;2024-01-11T08:01:06;148619.53;;;-1.64;100.00
61908;BME280;47864;52.526;19.672;2024-01-11T08:03:08;148647.09;;;-1.52;100.00
61908;BME280;47864;52.526;19.672;2024-01-11T08:05:09;148752.25;;;-1.10;100.00
61908;BME280;47864;52.526;19.672;2024-01-11T08:07:11;148675.91;;;-1.41;100.00
61908;BME280;47864;52.526;19.672;2024-01-11T08:09:13;148508.19;;;-2.09;100.00
61908;BME280;47864;52.526;19.672;2024-01-11T08:11:15;148655.88;;;-1.49;100.00
61908;BME280;47864;52.526;19.672;2024-01-11T08:13:16;148725.94;;;-1.21;100.00
61908;BME280;47864;52.526;19.672;2024-01-11T08:15:18;148685.88;;;-1.37;100.00
61908;BME280;47864;52.526;19.672;2024-01-11T08:17:19;148715.97;;;-1.25;100.00
61908;BME280;47864;52.526;19.672;2024-01-11T08:19:21;148579.50;;;-1.80;100.00
61908;BME280;47864;52.526;19.672;2024-01-11T08:21:23;148638.31;;;-1.56;100.00
61908;BME280;47864;52.526;19.672;2024-01-11T08:23:24;148592.03;;;-1.75;100.00
61908;BME280;47864;52.526;19.672;2024-01-11T08:25:26;148759.75;;;-1.07;100.00
61908;BME280;47864;52.526;19.672;2024-01-11T08:27:28;148777.31;;;-1.00;100.00
61908;BME280;47864;52.526;19.672;2024-01-11T08:29:29;148819.91;;;-0.83;100.00
61908;BME280;47864;52.526;19.672;2024-01-11T08:31:31;148763.50;;;-1.05;100.00
61908;BME280;47864;52.526;19.672;2024-01-11T08:33:33;148718.47;;;-1.24;100.00
61908;BME280;47864;52.526;19.672;2024-01-11T08:35:34;148777.31;;;-1.00;100.00
61908;BME280;47864;52.526;19.672;2024-01-11T08:37:36;148781.03;;;-0.98;100.00
61908;BME280;47864;52.526;19.672;2024-01-11T08:39:38;148779.78;;;-0.99;100.00
61908;BME280;47864;52.526;19.672;2024-01-11T08:41:43;148819.91;;;-0.83;100.00
61908;BME280;47864;52.526;19.672;2024-01-11T08:43:45;148836.19;;;-0.76;100.00
61908;BME280;47864;52.526;19.672;2024-01-11T08:45:47;148861.19;;;-0.66;100.00
61908;BME280;47864;52.526;19.672;2024-01-11T08:47:48;148848.69;;;-0.71;100.00
61908;BME280;47864;52.526;19.672;2024-01-11T08:49:52;148890.03;;;-0.54;100.00
61908;BME280;47864;52.526;19.672;2024-01-11T08:51:53;148814.88;;;-0.85;100.00
61908;BME280;47864;52.526;19.672;2024-01-11T08:53:55;148799.88;;;-0.91;100.00
61908;BME280;47864;52.526;19.672;2024-01-11T08:55:57;148754.78;;;-1.09;100.00
61908;BME280;47864;52.526;19.672;2024-01-11T08:57:59;148814.88;;;-0.85;100.00
61908;BME280;47864;52.526;19.672;2024-01-11T09:00:02;148807.34;;;-0.88;100.00
61908;BME280;47864;52.526;19.672;2024-01-11T09:02:03;148868.72;;;-0.63;100.00
61908;BME280;47864;52.526;19.672;2024-01-11T09:04:17;148921.38;;;-0.42;100.00
61908;BME280;47864;52.526;19.672;2024-01-11T09:06:18;148873.75;;;-0.61;100.00
61908;BME280;47864;52.526;19.672;2024-01-11T09:08:20;148866.22;;;-0.64;100.00
61908;BME280;47864;52.526;19.672;2024-01-11T09:10:22;148905.03;;;-0.48;100.00
61908;BME280;47864;52.526;19.672;2024-01-11T09:12:23;148824.88;;;-0.81;100.00
61908;BME280;47864;52.526;19.672;2024-01-11T09:14:25;148877.50;;;-0.59;100.00
61908;BME280;47864;52.526;19.672;2024-01-11T09:16:27;148834.91;;;-0.77;100.00
61908;BME280;47864;52.526;19.672;2024-01-11T09:18:29;148806.09;;;-0.88;100.00
61908;BME280;47864;52.526;19.672;2024-01-11T09:20:30;148819.91;;;-0.83;100.00
61908;BME280;47864;52.526;19.672;2024-01-11T09:22:32;148809.84;;;-0.87;100.00
61908;BME280;47864;52.526;19.672;2024-01-11T09:24:34;148798.63;;;-0.91;100.00
61908;BME280;47864;52.526;19.672;2024-01-11T09:26:40;148831.16;;;-0.78;100.00
61908;BME280;47864;52.526;19.672;2024-01-11T09:28:41;148861.19;;;-0.66;100.00
61908;BME280;47864;52.526;19.672;2024-01-11T09:30:43;148751.00;;;-1.10;100.00
61908;BME280;47864;52.526;19.672;2024-01-11T09:32:45;148812.38;;;-0.86;100.00
61908;BME280;47864;52.526;19.672;2024-01-11T09:34:47;148766.03;;;-1.04;100.00
61908;BME280;47864;52.526;19.672;2024-01-11T09:36:49;148712.19;;;-1.26;100.00
61908;BME280;47864;52.526;19.672;2024-01-11T09:38:50;148749.75;;;-1.11;100.00
61908;BME280;47864;52.526;19.672;2024-01-11T09:41:10;148720.94;;;-1.23;100.00
61908;BME280;47864;52.526;19.672;2024-01-11T09:43:15;148811.13;;;-0.86;100.00
61908;BME280;47864;52.526;19.672;2024-01-11T09:45:17;148888.78;;;-0.55;100.00
61908;BME280;47864;52.526;19.672;2024-01-11T09:47:19;148834.91;;;-0.77;100.00
61908;BME280;47864;52.526;19.672;2024-01-11T09:49:23;148787.31;;;-0.96;100.00
61908;BME280;47864;52.526;19.672;2024-01-11T09:51:25;148722.19;;;-1.22;100.00
61908;BME280;47864;52.526;19.672;2024-01-11T09:53:28;148746.00;;;-1.12;100.00
61908;BME280;47864;52.526;19.672;2024-01-11T09:55:30;148804.84;;;-0.89;100.00
61908;BME280;47864;52.526;19.672;2024-01-11T09:57:32;148839.94;;;-0.74;100.00
61908;BME280;47864;52.526;19.672;2024-01-11T09:59:34;148853.72;;;-0.69;100.00
61908;BME280;47864;52.526;19.672;2024-01-11T10:01:37;148881.28;;;-0.58;100.00
61908;BME280;47864;52.526;19.672;2024-01-11T10:03:39;148841.16;;;-0.74;100.00
61908;BME280;47864;52.526;19.672;2024-01-11T10:05:41;148753.50;;;-1.09;100.00
61908;BME280;47864;52.526;19.672;2024-01-11T10:07:44;148824.88;;;-0.81;100.00
61908;BME280;47864;52.526;19.672;2024-01-11T10:09:46;148818.66;;;-0.83;100.00
61908;BME280;47864;52.526;19.672;2024-01-11T10:11:48;148802.31;;;-0.90;100.00
61908;BME280;47864;52.526;19.672;2024-01-11T10:13:58;148852.44;;;-0.69;100.00
61908;BME280;47864;52.526;19.672;2024-01-11T10:16:09;148892.53;;;-0.53;100.00
61908;BME280;47864;52.526;19.672;2024-01-11T10:18:11;148897.56;;;-0.51;100.00
61908;BME280;47864;52.526;19.672;2024-01-11T10:20:14;148994.03;;;-0.12;100.00
61908;BME280;47864;52.526;19.672;2024-01-11T10:22:16;148917.59;;;-0.43;100.00